sensor_id;sensor_type;location;lat;lon;timestamp;temperature;humidity
10344;DHT22;5217;43.960;10.954;2023-01-13T00:01:12;14.20;99.90
10344;DHT22;5217;43.960;10.954;2023-01-13T00:03:41;14.20;99.90
10344;DHT22;5217;43.960;10.954;2023-01-13T00:06:12;14.20;99.90
10344;DHT22;5217;43.960;10.954;2023-01-13T00:08:43;14.20;99.90
10344;DHT22;5217;43.960;10.954;2023-01-13T00:11:11;14.10;99.90
10344;DHT22;5217;43.960;10.954;2023-01-13T00:13:39;14.10;99.90
10344;DHT22;5217;43.960;10.954;2023-01-13T00:16:10;14.10;99.90
10344;DHT22;5217;43.960;10.954;2023-01-13T00:18:39;14.20;99.90
10344;DHT22;5217;43.960;10.954;2023-01-13T00:21:11;14.20;99.90
10344;DHT22;5217;43.960;10.954;2023-01-13T00:23:42;14.20;99.90
10344;DHT22;5217;43.960;10.954;2023-01-13T00:26:13;14.10;99.90
10344;DHT22;5217;43.960;10.954;2023-01-13T00:28:41;14.10;99.90
10344;DHT22;5217;43.960;10.954;2023-01-13T00:31:11;14.10;99.90
10344;DHT22;5217;43.960;10.954;2023-01-13T00:33:40;14.10;99.90
10344;DHT22;5217;43.960;10.954;2023-01-13T00:36:11;14.10;99.90
10344;DHT22;5217;43.960;10.954;2023-01-13T00:38:42;14.10;99.90
10344;DHT22;5217;43.960;10.954;2023-01-13T00:41:11;14.10;99.90
10344;DHT22;5217;43.960;10.954;2023-01-13T00:43:40;14.10;99.90
10344;DHT22;5217;43.960;10.954;2023-01-13T00:46:09;14.10;99.90
10344;DHT22;5217;43.960;10.954;2023-01-13T00:48:38;14.10;99.90
10344;DHT22;5217;43.960;10.954;2023-01-13T00:51:09;14.20;99.90
10344;DHT22;5217;43.960;10.954;2023-01-13T00:53:39;14.10;99.90
10344;DHT22;5217;43.960;10.954;2023-01-13T00:56:12;14.10;99.90
10344;DHT22;5217;43.960;10.954;2023-01-13T00:58:43;14.10;99.90
10344;DHT22;5217;43.960;10.954;2023-01-13T01:01:14;14.10;99.90
10344;DHT22;5217;43.960;10.954;2023-01-13T01:03:42;14.10;99.90
10344;DHT22;5217;43.960;10.954;2023-01-13T01:06:13;14.10;99.90
10344;DHT22;5217;43.960;10.954;2023-01-13T01:08:42;14.10;99.90
10344;DHT22;5217;43.960;10.954;2023-01-13T01:11:13;14.10;99.90
10344;DHT22;5217;43.960;10.954;2023-01-13T01:13:42;14.00;99.90
10344;DHT22;5217;43.960;10.954;2023-01-13T01:16:12;14.10;99.90
10344;DHT22;5217;43.960;10.954;2023-01-13T01:18:43;14.00;99.90
10344;DHT22;5217;43.960;10.954;2023-01-13T01:21:13;14.10;99.90
10344;DHT22;5217;43.960;10.954;2023-01-13T01:23:42;14.00;99.90
10344;DHT22;5217;43.960;10.954;2023-01-13T01:26:13;14.10;99.90
10344;DHT22;5217;43.960;10.954;2023-01-13T01:28:43;14.00;99.90
10344;DHT22;5217;43.960;10.954;2023-01-13T01:31:13;14.00;99.90
10344;DHT22;5217;43.960;10.954;2023-01-13T01:33:42;14.00;99.90
10344;DHT22;5217;43.960;10.954;2023-01-13T01:36:13;14.00;99.90
10344;DHT22;5217;43.960;10.954;2023-01-13T01:38:42;14.00;99.90
10344;DHT22;5217;43.960;10.954;2023-01-13T01:41:14;14.00;99.90
10344;DHT22;5217;43.960;10.954;2023-01-13T01:43:49;14.00;99.90
10344;DHT22;5217;43.960;10.954;2023-01-13T01:46:26;14.00;99.90
10344;DHT22;5217;43.960;10.954;2023-01-13T01:48:59;14.00;99.90
10344;DHT22;5217;43.960;10.954;2023-01-13T01:51:32;14.00;99.90
10344;DHT22;5217;43.960;10.954;2023-01-13T01:54:03;14.00;99.90
10344;DHT22;5217;43.960;10.954;2023-01-13T01:56:35;13.90;99.90
10344;DHT22;5217;43.960;10.954;2023-01-13T01:59:04;14.00;99.90
10344;DHT22;5217;43.960;10.954;2023-01-13T02:01:33;13.90;99.90
10344;DHT22;5217;43.960;10.954;2023-01-13T02:04:06;13.90;99.90
10344;DHT22;5217;43.960;10.954;2023-01-13T02:06:37;13.90;99.90
10344;DHT22;5217;43.960;10.954;2023-01-13T02:09:06;13.90;99.90
10344;DHT22;5217;43.960;10.954;2023-01-13T02:11:36;13.90;99.90
10344;DHT22;5217;43.960;10.954;2023-01-13T02:14:25;13.90;99.90
10344;DHT22;5217;43.960;10.954;2023-01-13T02:17:02;13.90;99.90
10344;DHT22;5217;43.960;10.954;2023-01-13T02:22:50;13.90;99.90
10344;DHT22;5217;43.960;10.954;2023-01-13T02:25:45;13.90;99.90
10344;DHT22;5217;43.960;10.954;2023-01-13T02:28:33;13.90;99.90
10344;DHT22;5217;43.960;10.954;2023-01-13T02:31:29;13.90;99.90
10344;DHT22;5217;43.960;10.954;2023-01-13T02:34:13;13.80;99.90
10344;DHT22;5217;43.960;10.954;2023-01-13T02:36:50;13.80;99.90
10344;DHT22;5217;43.960;10.954;2023-01-13T02:39:25;13.80;99.90
10344;DHT22;5217;43.960;10.954;2023-01-13T02:41:56;13.80;99.90
10344;DHT22;5217;43.960;10.954;2023-01-13T02:44:49;13.80;99.90
10344;DHT22;5217;43.960;10.954;2023-01-13T02:47:21;13.80;99.90
10344;DHT22;5217;43.960;10.954;2023-01-13T02:49:55;13.70;99.90
10344;DHT22;5217;43.960;10.954;2023-01-13T02:52:29;13.70;99.90
10344;DHT22;5217;43.960;10.954;2023-01-13T02:55:02;13.70;99.90
10344;DHT22;5217;43.960;10.954;2023-01-13T02:57:33;13.70;99.90
10344;DHT22;5217;43.960;10.954;2023-01-13T03:00:04;13.70;99.90
10344;DHT22;5217;43.960;10.954;2023-01-13T03:02:35;13.70;99.90
10344;DHT22;5217;43.960;10.954;2023-01-13T03:05:05;13.70;99.90
10344;DHT22;5217;43.960;10.954;2023-01-13T03:07:53;13.70;99.90
10344;DHT22;5217;43.960;10.954;2023-01-13T03:10:33;13.60;99.90
10344;DHT22;5217;43.960;10.954;2023-01-13T03:13:14;13.70;99.90
10344;DHT22;5217;43.960;10.954;2023-01-13T03:15:52;13.70;99.90
10344;DHT22;5217;43.960;10.954;2023-01-13T03:18:34;13.70;99.90
10344;DHT22;5217;43.960;10.954;2023-01-13T03:21:08;13.60;99.90
10344;DHT22;5217;43.960;10.954;2023-01-13T03:23:47;13.60;99.90
10344;DHT22;5217;43.960;10.954;2023-01-13T03:26:22;13.60;99.90
10344;DHT22;5217;43.960;10.954;2023-01-13T03:28:55;13.70;99.90
10344;DHT22;5217;43.960;10.954;2023-01-13T03:31:30;13.60;99.90
10344;DHT22;5217;43.960;10.954;2023-01-13T03:34:04;13.60;99.90
10344;DHT22;5217;43.960;10.954;2023-01-13T03:36:37;13.60;99.90
10344;DHT22;5217;43.960;10.954;2023-01-13T03:39:10;13.60;99.90
10344;DHT22;5217;43.960;10.954;2023-01-13T03:41:43;13.70;99.90
10344;DHT22;5217;43.960;10.954;2023-01-13T03:44:15;13.60;99.90
10344;DHT22;5217;43.960;10.954;2023-01-13T03:46:56;13.70;99.90
10344;DHT22;5217;43.960;10.954;2023-01-13T03:49:33;13.60;99.90
10344;DHT22;5217;43.960;10.954;2023-01-13T03:52:07;13.60;99.90
10344;DHT22;5217;43.960;10.954;2023-01-13T03:54:44;13.60;99.90
10344;DHT22;5217;43.960;10.954;2023-01-13T03:57:17;13.70;99.90
10344;DHT22;5217;43.960;10.954;2023-01-13T03:59:50;13.60;99.90
10344;DHT22;5217;43.960;10.954;2023-01-13T04:02:28;13.60;99.90
10344;DHT22;5217;43.960;10.954;2023-01-13T04:05:03;13.60;99.90
10344;DHT22;5217;43.960;10.954;2023-01-13T04:07:43;13.60;99.90
10344;DHT22;5217;43.960;10.954;2023-01-13T04:10:17;13.60;99.90
10344;DHT22;5217;43.960;10.954;2023-01-13T04:12:51;13.60;99.90
10344;DHT22;5217;43.960;10.954;2023-01-13T04:15:33;13.60;99.90
10344;DHT22;5217;43.960;10.954;2023-01-13T04:18:14;13.60;99.90
10344;DHT22;5217;43.960;10.954;2023-01-13T04:20:46;13.60;99.90
10344;DHT22;5217;43.960;10.954;2023-01-13T04:23:15;13.60;99.90
10344;DHT22;5217;43.960;10.954;2023-01-13T04:25:44;13.60;99.90
10344;DHT22;5217;43.960;10.954;2023-01-13T04:28:13;13.60;99.90
10344;DHT22;5217;43.960;10.954;2023-01-13T04:30:43;13.60;99.90
10344;DHT22;5217;43.960;10.954;2023-01-13T04:33:13;13.60;99.90
10344;DHT22;5217;43.960;10.954;2023-01-13T04:35:44;13.60;99.90
10344;DHT22;5217;43.960;10.954;2023-01-13T04:38:15;13.60;99.90
10344;DHT22;5217;43.960;10.954;2023-01-13T04:40:43;13.60;99.90
10344;DHT22;5217;43.960;10.954;2023-01-13T04:43:12;13.60;99.90
10344;DHT22;5217;43.960;10.954;2023-01-13T04:45:42;13.60;99.90
10344;DHT22;5217;43.960;10.954;2023-01-13T04:48:10;13.60;99.90
10344;DHT22;5217;43.960;10.954;2023-01-13T04:50:39;13.60;99.90
10344;DHT22;5217;43.960;10.954;2023-01-13T04:53:09;13.60;99.90
10344;DHT22;5217;43.960;10.954;2023-01-13T04:55:37;13.60;99.90
10344;DHT22;5217;43.960;10.954;2023-01-13T04:58:08;13.60;99.90
10344;DHT22;5217;43.960;10.954;2023-01-13T05:00:36;13.60;99.90
10344;DHT22;5217;43.960;10.954;2023-01-13T05:03:05;13.60;99.90
10344;DHT22;5217;43.960;10.954;2023-01-13T05:05:33;13.60;99.90
10344;DHT22;5217;43.960;10.954;2023-01-13T05:08:02;13.60;99.90
10344;DHT22;5217;43.960;10.954;2023-01-13T05:10:31;13.60;99.90
10344;DHT22;5217;43.960;10.954;2023-01-13T05:13:00;13.60;99.90
10344;DHT22;5217;43.960;10.954;2023-01-13T05:15:45;13.60;99.90
10344;DHT22;5217;43.960;10.954;2023-01-13T05:18:32;13.60;99.90
10344;DHT22;5217;43.960;10.954;2023-01-13T05:21:01;13.60;99.90
10344;DHT22;5217;43.960;10.954;2023-01-13T05:23:29;13.60;99.90
10344;DHT22;5217;43.960;10.954;2023-01-13T05:26:16;13.60;99.90
10344;DHT22;5217;43.960;10.954;2023-01-13T05:28:44;13.60;99.90
10344;DHT22;5217;43.960;10.954;2023-01-13T05:31:13;13.60;99.90
10344;DHT22;5217;43.960;10.954;2023-01-13T05:33:41;13.60;99.90
10344;DHT22;5217;43.960;10.954;2023-01-13T05:36:09;13.60;99.90
10344;DHT22;5217;43.960;10.954;2023-01-13T05:38:38;13.60;99.90
10344;DHT22;5217;43.960;10.954;2023-01-13T05:41:07;13.60;99.90
10344;DHT22;5217;43.960;10.954;2023-01-13T05:43:54;13.60;99.90
10344;DHT22;5217;43.960;10.954;2023-01-13T05:46:22;13.50;99.90
10344;DHT22;5217;43.960;10.954;2023-01-13T05:48:51;13.50;99.90
10344;DHT22;5217;43.960;10.954;2023-01-13T05:51:19;13.50;99.90
10344;DHT22;5217;43.960;10.954;2023-01-13T05:53:52;13.50;99.90
10344;DHT22;5217;43.960;10.954;2023-01-13T05:56:20;13.50;99.90
10344;DHT22;5217;43.960;10.954;2023-01-13T05:58:49;13.50;99.90
10344;DHT22;5217;43.960;10.954;2023-01-13T06:01:18;13.40;99.90
10344;DHT22;5217;43.960;10.954;2023-01-13T06:03:47;13.40;99.90
10344;DHT22;5217;43.960;10.954;2023-01-13T06:06:15;13.50;99.90
10344;DHT22;5217;43.960;10.954;2023-01-13T06:08:44;13.40;99.90
10344;DHT22;5217;43.960;10.954;2023-01-13T06:11:12;13.40;99.90
10344;DHT22;5217;43.960;10.954;2023-01-13T06:13:41;13.40;99.90
10344;DHT22;5217;43.960;10.954;2023-01-13T06:16:09;13.40;99.90
10344;DHT22;5217;43.960;10.954;2023-01-13T06:18:39;13.40;99.90
10344;DHT22;5217;43.960;10.954;2023-01-13T06:21:07;13.40;99.90
10344;DHT22;5217;43.960;10.954;2023-01-13T06:23:36;13.40;99.90
10344;DHT22;5217;43.960;10.954;2023-01-13T06:26:08;13.40;99.90
10344;DHT22;5217;43.960;10.954;2023-01-13T06:28:39;13.40;99.90
10344;DHT22;5217;43.960;10.954;2023-01-13T06:31:09;13.40;99.90
10344;DHT22;5217;43.960;10.954;2023-01-13T06:33:40;13.40;99.90
10344;DHT22;5217;43.960;10.954;2023-01-13T06:36:13;13.40;99.90
10344;DHT22;5217;43.960;10.954;2023-01-13T06:38:44;13.40;99.90
10344;DHT22;5217;43.960;10.954;2023-01-13T06:41:15;13.40;99.90
10344;DHT22;5217;43.960;10.954;2023-01-13T06:43:43;13.40;99.90
10344;DHT22;5217;43.960;10.954;2023-01-13T06:46:12;13.40;99.90
10344;DHT22;5217;43.960;10.954;2023-01-13T06:48:42;13.40;99.90
10344;DHT22;5217;43.960;10.954;2023-01-13T06:51:10;13.40;99.90
10344;DHT22;5217;43.960;10.954;2023-01-13T06:53:38;13.40;99.90
10344;DHT22;5217;43.960;10.954;2023-01-13T06:56:07;13.40;99.90
10344;DHT22;5217;43.960;10.954;2023-01-13T06:58:35;13.40;99.90
10344;DHT22;5217;43.960;10.954;2023-01-13T07:01:04;13.40;99.90
10344;DHT22;5217;43.960;10.954;2023-01-13T07:03:32;13.40;99.90
10344;DHT22;5217;43.960;10.954;2023-01-13T07:06:02;13.50;99.90
10344;DHT22;5217;43.960;10.954;2023-01-13T07:08:30;13.50;99.90
10344;DHT22;5217;43.960;10.954;2023-01-13T07:11:01;13.50;99.90
10344;DHT22;5217;43.960;10.954;2023-01-13T07:13:29;13.50;99.90
10344;DHT22;5217;43.960;10.954;2023-01-13T07:16:15;13.50;99.90
10344;DHT22;5217;43.960;10.954;2023-01-13T07:18:44;13.50;99.90
10344;DHT22;5217;43.960;10.954;2023-01-13T07:21:13;13.50;99.90
10344;DHT22;5217;43.960;10.954;2023-01-13T07:23:45;13.50;99.90
10344;DHT22;5217;43.960;10.954;2023-01-13T07:26:14;13.50;99.90
10344;DHT22;5217;43.960;10.954;2023-01-13T07:28:43;13.50;99.90
10344;DHT22;5217;43.960;10.954;2023-01-13T07:31:13;13.50;99.90
10344;DHT22;5217;43.960;10.954;2023-01-13T07:33:41;13.50;99.90
10344;DHT22;5217;43.960;10.954;2023-01-13T07:36:10;13.60;99.90
10344;DHT22;5217;43.960;10.954;2023-01-13T07:38:40;13.60;99.90
10344;DHT22;5217;43.960;10.954;2023-01-13T07:41:11;13.60;99.90
10344;DHT22;5217;43.960;10.954;2023-01-13T07:43:57;13.60;99.90
10344;DHT22;5217;43.960;10.954;2023-01-13T07:46:30;13.60;99.90
10344;DHT22;5217;43.960;10.954;2023-01-13T07:48:59;13.60;99.90
10344;DHT22;5217;43.960;10.954;2023-01-13T07:51:27;13.70;99.90
10344;DHT22;5217;43.960;10.954;2023-01-13T07:53:57;13.70;99.90
10344;DHT22;5217;43.960;10.954;2023-01-13T07:56:25;13.70;99.90
10344;DHT22;5217;43.960;10.954;2023-01-13T07:58:53;13.70;99.90
10344;DHT22;5217;43.960;10.954;2023-01-13T08:01:22;13.70;99.90
10344;DHT22;5217;43.960;10.954;2023-01-13T08:03:50;13.70;99.90
10344;DHT22;5217;43.960;10.954;2023-01-13T08:06:18;13.70;99.90
10344;DHT22;5217;43.960;10.954;2023-01-13T08:08:47;13.70;99.90
10344;DHT22;5217;43.960;10.954;2023-01-13T08:11:16;13.70;99.90
10344;DHT22;5217;43.960;10.954;2023-01-13T08:13:47;13.70;99.90
10344;DHT22;5217;43.960;10.954;2023-01-13T08:16:16;13.70;99.90
10344;DHT22;5217;43.960;10.954;2023-01-13T08:18:44;13.80;99.90
10344;DHT22;5217;43.960;10.954;2023-01-13T08:21:13;13.80;99.90
10344;DHT22;5217;43.960;10.954;2023-01-13T08:23:43;13.80;99.90
10344;DHT22;5217;43.960;10.954;2023-01-13T08:26:13;13.70;99.90
10344;DHT22;5217;43.960;10.954;2023-01-13T08:28:43;13.80;99.90
10344;DHT22;5217;43.960;10.954;2023-01-13T08:31:13;13.80;99.90
10344;DHT22;5217;43.960;10.954;2023-01-13T08:33:43;13.70;99.90
10344;DHT22;5217;43.960;10.954;2023-01-13T08:36:11;13.80;99.90
10344;DHT22;5217;43.960;10.954;2023-01-13T08:38:40;13.80;99.90
10344;DHT22;5217;43.960;10.954;2023-01-13T08:41:09;13.70;99.90
10344;DHT22;5217;43.960;10.954;2023-01-13T08:43:38;13.70;99.90
10344;DHT22;5217;43.960;10.954;2023-01-13T08:46:08;13.80;99.90
10344;DHT22;5217;43.960;10.954;2023-01-13T08:48:36;13.80;99.90
10344;DHT22;5217;43.960;10.954;2023-01-13T08:51:06;13.80;99.90
10344;DHT22;5217;43.960;10.954;2023-01-13T08:53:35;13.80;99.90
10344;DHT22;5217;43.960;10.954;2023-01-13T08:56:06;13.80;99.90
10344;DHT22;5217;43.960;10.954;2023-01-13T08:58:36;13.80;99.90
10344;DHT22;5217;43.960;10.954;2023-01-13T09:01:09;13.80;99.90
10344;DHT22;5217;43.960;10.954;2023-01-13T09:03:38;13.80;99.90
10344;DHT22;5217;43.960;10.954;2023-01-13T09:06:07;13.80;99.90
10344;DHT22;5217;43.960;10.954;2023-01-13T09:08:36;13.80;99.90
10344;DHT22;5217;43.960;10.954;2023-01-13T09:11:04;13.80;99.90
10344;DHT22;5217;43.960;10.954;2023-01-13T09:13:52;13.80;99.90
10344;DHT22;5217;43.960;10.954;2023-01-13T09:16:21;13.80;99.90
10344;DHT22;5217;43.960;10.954;2023-01-13T09:18:49;13.80;99.90
10344;DHT22;5217;43.960;10.954;2023-01-13T09:21:18;13.80;99.90
10344;DHT22;5217;43.960;10.954;2023-01-13T09:23:47;13.80;99.90
10344;DHT22;5217;43.960;10.954;2023-01-13T09:26:19;13.80;99.90
10344;DHT22;5217;43.960;10.954;2023-01-13T09:28:47;13.80;99.90
10344;DHT22;5217;43.960;10.954;2023-01-13T09:31:16;13.90;99.90
10344;DHT22;5217;43.960;10.954;2023-01-13T09:33:45;13.80;99.90
10344;DHT22;5217;43.960;10.954;2023-01-13T09:36:31;13.80;99.90
10344;DHT22;5217;43.960;10.954;2023-01-13T09:38:59;13.80;99.90
10344;DHT22;5217;43.960;10.954;2023-01-13T09:41:29;13.90;99.90
10344;DHT22;5217;43.960;10.954;2023-01-13T09:44:18;13.90;99.90
10344;DHT22;5217;43.960;10.954;2023-01-13T09:46:50;13.80;99.90
10344;DHT22;5217;43.960;10.954;2023-01-13T09:49:23;13.90;99.90
10344;DHT22;5217;43.960;10.954;2023-01-13T09:51:57;13.90;99.90
10344;DHT22;5217;43.960;10.954;2023-01-13T09:54:29;13.80;99.90
10344;DHT22;5217;43.960;10.954;2023-01-13T09:56:59;13.90;99.90
10344;DHT22;5217;43.960;10.954;2023-01-13T09:59:30;13.90;99.90
10344;DHT22;5217;43.960;10.954;2023-01-13T10:02:12;13.90;99.90
10344;DHT22;5217;43.960;10.954;2023-01-13T10:07:45;13.90;99.90
10344;DHT22;5217;43.960;10.954;2023-01-13T10:10:20;13.90;99.90
10344;DHT22;5217;43.960;10.954;2023-01-13T10:12:51;13.90;99.90
10344;DHT22;5217;43.960;10.954;2023-01-13T10:15:37;13.90;99.90
10344;DHT22;5217;43.960;10.954;2023-01-13T10:18:13;13.90;99.90
10344;DHT22;5217;43.960;10.954;2023-01-13T10:20:51;13.90;99.90
10344;DHT22;5217;43.960;10.954;2023-01-13T10:23:37;13.90;99.90
10344;DHT22;5217;43.960;10.954;2023-01-13T10:26:23;13.90;99.90
10344;DHT22;5217;43.960;10.954;2023-01-13T10:28:55;13.90;99.90
10344;DHT22;5217;43.960;10.954;2023-01-13T10:31:24;13.90;99.90
10344;DHT22;5217;43.960;10.954;2023-01-13T10:33:57;13.90;99.90
10344;DHT22;5217;43.960;10.954;2023-01-13T10:36:27;13.90;99.90
10344;DHT22;5217;43.960;10.954;2023-01-13T10:39:07;13.80;99.90
10344;DHT22;5217;43.960;10.954;2023-01-13T10:41:35;13.80;99.90
10344;DHT22;5217;43.960;10.954;2023-01-13T10:44:13;13.80;99.90
10344;DHT22;5217;43.960;10.954;2023-01-13T10:46:51;13.80;99.90
10344;DHT22;5217;43.960;10.954;2023-01-13T10:49:29;13.80;99.90
10344;DHT22;5217;43.960;10.954;2023-01-13T10:51:59;13.80;99.90
10344;DHT22;5217;43.960;10.954;2023-01-13T10:54:29;13.80;99.90
10344;DHT22;5217;43.960;10.954;2023-01-13T10:57:18;13.80;99.90
10344;DHT22;5217;43.960;10.954;2023-01-13T10:59:47;13.70;99.90
10344;DHT22;5217;43.960;10.954;2023-01-13T11:02:19;13.70;99.90
10344;DHT22;5217;43.960;10.954;2023-01-13T11:05:08;13.70;99.90
10344;DHT22;5217;43.960;10.954;2023-01-13T11:07:46;13.70;99.90
10344;DHT22;5217;43.960;10.954;2023-01-13T11:10:22;13.70;99.90
10344;DHT22;5217;43.960;10.954;2023-01-13T11:12:58;13.70;99.90
10344;DHT22;5217;43.960;10.954;2023-01-13T11:15:38;13.70;99.90
10344;DHT22;5217;43.960;10.954;2023-01-13T11:18:17;13.70;99.90
10344;DHT22;5217;43.960;10.954;2023-01-13T11:20:49;13.70;99.90
10344;DHT22;5217;43.960;10.954;2023-01-13T11:23:22;13.70;99.90
10344;DHT22;5217;43.960;10.954;2023-01-13T11:25:58;13.70;99.90
10344;DHT22;5217;43.960;10.954;2023-01-13T11:28:38;13.80;99.90
10344;DHT22;5217;43.960;10.954;2023-01-13T11:31:15;13.80;99.90
10344;DHT22;5217;43.960;10.954;2023-01-13T11:33:50;13.80;99.90
10344;DHT22;5217;43.960;10.954;2023-01-13T11:36:22;13.80;99.90
10344;DHT22;5217;43.960;10.954;2023-01-13T11:38:53;13.80;99.90
10344;DHT22;5217;43.960;10.954;2023-01-13T11:41:32;13.80;99.90
10344;DHT22;5217;43.960;10.954;2023-01-13T11:44:15;13.80;99.90
10344;DHT22;5217;43.960;10.954;2023-01-13T11:46:44;13.80;99.90
10344;DHT22;5217;43.960;10.954;2023-01-13T11:49:22;13.80;99.90
10344;DHT22;5217;43.960;10.954;2023-01-13T11:51:58;13.80;99.90
10344;DHT22;5217;43.960;10.954;2023-01-13T11:54:55;13.80;99.90
10344;DHT22;5217;43.960;10.954;2023-01-13T12:00:28;13.90;99.90
10344;DHT22;5217;43.960;10.954;2023-01-13T12:03:15;13.90;99.90
10344;DHT22;5217;43.960;10.954;2023-01-13T12:05:59;13.90;99.90
10344;DHT22;5217;43.960;10.954;2023-01-13T12:11:45;13.90;99.90
10344;DHT22;5217;43.960;10.954;2023-01-13T12:14:46;13.90;99.90
10344;DHT22;5217;43.960;10.954;2023-01-13T12:17:24;13.90;99.90
10344;DHT22;5217;43.960;10.954;2023-01-13T12:19:53;13.90;99.90
10344;DHT22;5217;43.960;10.954;2023-01-13T12:22:25;13.90;99.90
10344;DHT22;5217;43.960;10.954;2023-01-13T12:24:59;13.90;99.90
10344;DHT22;5217;43.960;10.954;2023-01-13T12:27:38;13.90;99.90
10344;DHT22;5217;43.960;10.954;2023-01-13T12:30:22;13.90;99.90
10344;DHT22;5217;43.960;10.954;2023-01-13T12:32:53;13.90;99.90
10344;DHT22;5217;43.960;10.954;2023-01-13T12:35:33;13.90;99.90
10344;DHT22;5217;43.960;10.954;2023-01-13T12:38:08;13.80;99.90
10344;DHT22;5217;43.960;10.954;2023-01-13T12:40:46;13.80;99.90
10344;DHT22;5217;43.960;10.954;2023-01-13T12:43:18;13.90;99.90
10344;DHT22;5217;43.960;10.954;2023-01-13T12:46:34;13.90;99.90
10344;DHT22;5217;43.960;10.954;2023-01-13T12:49:19;13.90;99.90
10344;DHT22;5217;43.960;10.954;2023-01-13T12:52:12;13.90;99.90
10344;DHT22;5217;43.960;10.954;2023-01-13T12:55:00;13.90;99.90
10344;DHT22;5217;43.960;10.954;2023-01-13T12:57:31;13.90;99.90
10344;DHT22;5217;43.960;10.954;2023-01-13T13:00:15;13.90;99.90
10344;DHT22;5217;43.960;10.954;2023-01-13T13:06:13;13.90;99.90
10344;DHT22;5217;43.960;10.954;2023-01-13T13:08:57;13.90;99.90
10344;DHT22;5217;43.960;10.954;2023-01-13T13:11:42;13.90;99.90
10344;DHT22;5217;43.960;10.954;2023-01-13T13:14:59;13.90;99.90
10344;DHT22;5217;43.960;10.954;2023-01-13T13:17:43;13.90;99.90
10344;DHT22;5217;43.960;10.954;2023-01-13T13:20:53;13.90;99.90
10344;DHT22;5217;43.960;10.954;2023-01-13T13:23:42;13.90;99.90
10344;DHT22;5217;43.960;10.954;2023-01-13T13:26:25;13.90;99.90
10344;DHT22;5217;43.960;10.954;2023-01-13T13:29:24;13.90;99.90
10344;DHT22;5217;43.960;10.954;2023-01-13T13:35:00;13.90;99.90
10344;DHT22;5217;43.960;10.954;2023-01-13T13:37:45;13.90;99.90
10344;DHT22;5217;43.960;10.954;2023-01-13T13:40:38;13.90;99.90
10344;DHT22;5217;43.960;10.954;2023-01-13T13:43:24;13.90;99.90
10344;DHT22;5217;43.960;10.954;2023-01-13T13:46:25;14.00;99.90
10344;DHT22;5217;43.960;10.954;2023-01-13T13:49:13;13.90;99.90
10344;DHT22;5217;43.960;10.954;2023-01-13T13:51:45;14.00;99.90
10344;DHT22;5217;43.960;10.954;2023-01-13T13:54:20;14.00;99.90
10344;DHT22;5217;43.960;10.954;2023-01-13T13:56:50;14.00;99.90
10344;DHT22;5217;43.960;10.954;2023-01-13T13:59:21;14.00;99.90
10344;DHT22;5217;43.960;10.954;2023-01-13T14:01:52;14.00;99.90
10344;DHT22;5217;43.960;10.954;2023-01-13T14:04:29;13.90;99.90
10344;DHT22;5217;43.960;10.954;2023-01-13T14:07:00;14.00;99.90
10344;DHT22;5217;43.960;10.954;2023-01-13T14:09:40;14.00;99.90
10344;DHT22;5217;43.960;10.954;2023-01-13T14:12:16;14.00;99.90
10344;DHT22;5217;43.960;10.954;2023-01-13T14:14:47;14.00;99.90
10344;DHT22;5217;43.960;10.954;2023-01-13T14:17:21;14.00;99.90
10344;DHT22;5217;43.960;10.954;2023-01-13T14:19:51;14.00;99.90
10344;DHT22;5217;43.960;10.954;2023-01-13T14:22:20;14.00;99.90
10344;DHT22;5217;43.960;10.954;2023-01-13T14:24:50;14.00;99.90
10344;DHT22;5217;43.960;10.954;2023-01-13T14:27:22;14.00;99.90
10344;DHT22;5217;43.960;10.954;2023-01-13T14:29:54;14.00;99.90
10344;DHT22;5217;43.960;10.954;2023-01-13T14:32:28;14.00;99.90
10344;DHT22;5217;43.960;10.954;2023-01-13T14:34:58;14.00;99.90
10344;DHT22;5217;43.960;10.954;2023-01-13T14:37:32;14.00;99.90
10344;DHT22;5217;43.960;10.954;2023-01-13T14:40:02;14.00;99.90
10344;DHT22;5217;43.960;10.954;2023-01-13T14:42:31;13.90;99.90
10344;DHT22;5217;43.960;10.954;2023-01-13T14:45:02;14.00;99.90
10344;DHT22;5217;43.960;10.954;2023-01-13T14:47:31;14.00;99.90
10344;DHT22;5217;43.960;10.954;2023-01-13T14:50:03;14.00;99.90
10344;DHT22;5217;43.960;10.954;2023-01-13T14:52:35;14.00;99.90
10344;DHT22;5217;43.960;10.954;2023-01-13T14:55:23;14.00;99.90
10344;DHT22;5217;43.960;10.954;2023-01-13T14:57:51;14.00;99.90
10344;DHT22;5217;43.960;10.954;2023-01-13T15:00:23;14.00;99.90
10344;DHT22;5217;43.960;10.954;2023-01-13T15:03:06;14.00;99.90
10344;DHT22;5217;43.960;10.954;2023-01-13T15:05:40;13.90;99.90
10344;DHT22;5217;43.960;10.954;2023-01-13T15:08:27;14.00;99.90
10344;DHT22;5217;43.960;10.954;2023-01-13T15:10:58;13.90;99.90
10344;DHT22;5217;43.960;10.954;2023-01-13T15:13:39;13.90;99.90
10344;DHT22;5217;43.960;10.954;2023-01-13T15:16:21;13.90;99.90
10344;DHT22;5217;43.960;10.954;2023-01-13T15:18:51;13.90;99.90
10344;DHT22;5217;43.960;10.954;2023-01-13T15:21:20;13.90;99.90
10344;DHT22;5217;43.960;10.954;2023-01-13T15:23:49;14.00;99.90
10344;DHT22;5217;43.960;10.954;2023-01-13T15:26:21;13.90;99.90
10344;DHT22;5217;43.960;10.954;2023-01-13T15:28:50;13.90;99.90
10344;DHT22;5217;43.960;10.954;2023-01-13T15:31:19;13.90;99.90
10344;DHT22;5217;43.960;10.954;2023-01-13T15:33:48;13.90;99.90
10344;DHT22;5217;43.960;10.954;2023-01-13T15:36:24;13.90;99.90
10344;DHT22;5217;43.960;10.954;2023-01-13T15:38:53;13.90;99.90
10344;DHT22;5217;43.960;10.954;2023-01-13T15:41:24;14.00;99.90
10344;DHT22;5217;43.960;10.954;2023-01-13T15:44:11;14.00;99.90
10344;DHT22;5217;43.960;10.954;2023-01-13T15:46:58;14.00;99.90
10344;DHT22;5217;43.960;10.954;2023-01-13T15:49:29;13.90;99.90
10344;DHT22;5217;43.960;10.954;2023-01-13T15:52:02;14.00;99.90
10344;DHT22;5217;43.960;10.954;2023-01-13T15:54:30;13.90;99.90
10344;DHT22;5217;43.960;10.954;2023-01-13T15:57:00;14.00;99.90
10344;DHT22;5217;43.960;10.954;2023-01-13T15:59:29;14.00;99.90
10344;DHT22;5217;43.960;10.954;2023-01-13T16:01:57;14.00;99.90
10344;DHT22;5217;43.960;10.954;2023-01-13T16:04:25;14.00;99.90
10344;DHT22;5217;43.960;10.954;2023-01-13T16:06:54;14.00;99.90
10344;DHT22;5217;43.960;10.954;2023-01-13T16:09:22;14.00;99.90
10344;DHT22;5217;43.960;10.954;2023-01-13T16:11:50;14.00;99.90
10344;DHT22;5217;43.960;10.954;2023-01-13T16:14:20;14.00;99.90
10344;DHT22;5217;43.960;10.954;2023-01-13T16:16:48;14.00;99.90
10344;DHT22;5217;43.960;10.954;2023-01-13T16:19:17;13.90;99.90
10344;DHT22;5217;43.960;10.954;2023-01-13T16:21:45;14.00;99.90
10344;DHT22;5217;43.960;10.954;2023-01-13T16:24:14;14.00;99.90
10344;DHT22;5217;43.960;10.954;2023-01-13T16:26:42;14.00;99.90
10344;DHT22;5217;43.960;10.954;2023-01-13T16:29:10;14.00;99.90